createdAt,value
2018-09-17T00:01:16.289Z,7.70
2018-09-17T00:03:44.788Z,8.40
2018-09-17T00:06:13.323Z,8.70
2018-09-17T00:08:41.911Z,7.93
2018-09-17T00:11:10.374Z,7.87
2018-09-17T00:13:38.848Z,7.30
2018-09-17T00:16:07.476Z,8.57
2018-09-17T00:18:35.861Z,8.47
2018-09-17T00:21:04.452Z,7.63
2018-09-17T00:23:33.002Z,8.00
2018-09-17T00:26:02.088Z,8.53
2018-09-17T00:28:30.599Z,8.23
2018-09-17T00:30:59.224Z,8.07
2018-09-17T00:33:27.670Z,7.30
2018-09-17T00:35:56.114Z,7.77
2018-09-17T00:38:24.480Z,7.73
2018-09-17T00:40:53.002Z,9.67
2018-09-17T00:43:21.604Z,7.90
2018-09-17T00:45:50.138Z,9.03
2018-09-17T00:48:18.662Z,8.40
2018-09-17T00:50:47.217Z,7.73
2018-09-17T00:53:15.766Z,8.90
2018-09-17T00:55:44.213Z,9.13
2018-09-17T00:58:12.772Z,8.30
2018-09-17T01:00:41.399Z,10.67
2018-09-17T01:03:09.798Z,9.40
2018-09-17T01:05:38.292Z,8.93
2018-09-17T01:08:06.717Z,8.50
2018-09-17T01:10:35.130Z,9.10
2018-09-17T01:13:03.562Z,10.03
2018-09-17T01:15:32.071Z,8.67
2018-09-17T01:18:00.634Z,9.30
2018-09-17T01:20:29.209Z,8.30
2018-09-17T01:22:57.763Z,8.93
2018-09-17T01:25:26.171Z,8.70
2018-09-17T01:27:54.570Z,7.80
2018-09-17T01:30:23.184Z,8.77
2018-09-17T01:32:51.786Z,8.10
2018-09-17T01:35:20.118Z,8.63
2018-09-17T01:37:48.713Z,8.60
2018-09-17T01:40:17.245Z,8.37
2018-09-17T01:42:45.730Z,7.80
2018-09-17T01:45:14.319Z,7.00
2018-09-17T01:47:42.734Z,7.40
2018-09-17T01:50:11.349Z,7.47
2018-09-17T01:52:39.891Z,7.00
2018-09-17T01:55:08.371Z,8.70
2018-09-17T01:57:37.265Z,7.50
2018-09-17T02:00:05.749Z,7.47
2018-09-17T02:02:34.276Z,7.83
2018-09-17T02:05:02.711Z,8.03
2018-09-17T02:07:31.238Z,7.37
2018-09-17T02:09:59.813Z,7.67
2018-09-17T02:12:28.247Z,7.30
2018-09-17T02:14:56.878Z,7.30
2018-09-17T02:17:25.355Z,7.13
2018-09-17T02:19:53.862Z,8.17
2018-09-17T02:22:22.328Z,18.07
2018-09-17T02:24:50.766Z,8.10
2018-09-17T02:27:19.433Z,9.00
2018-09-17T02:29:47.863Z,9.07
2018-09-17T02:32:16.290Z,9.30
2018-09-17T02:34:44.644Z,9.83
2018-09-17T02:37:13.157Z,8.60
2018-09-17T02:39:41.546Z,8.33
2018-09-17T02:42:10.092Z,8.30
2018-09-17T02:44:38.667Z,9.50
2018-09-17T02:47:07.344Z,8.57
2018-09-17T02:49:35.948Z,8.20
2018-09-17T02:52:04.382Z,9.00
2018-09-17T02:54:32.922Z,8.77
2018-09-17T02:57:01.469Z,9.17
2018-09-17T02:59:29.995Z,10.07
2018-09-17T03:01:58.564Z,9.97
2018-09-17T03:04:27.394Z,10.30
2018-09-17T03:06:55.975Z,9.80
2018-09-17T03:09:24.627Z,9.10
2018-09-17T03:11:53.150Z,8.83
2018-09-17T03:14:28.107Z,9.80
2018-09-17T03:17:09.692Z,9.87
2018-09-17T03:19:38.449Z,9.40
2018-09-17T03:22:06.993Z,7.97
2018-09-17T03:24:35.459Z,7.97
2018-09-17T03:27:03.910Z,8.80
2018-09-17T03:29:32.478Z,8.83
2018-09-17T03:32:00.951Z,9.20
2018-09-17T03:34:29.529Z,9.30
2018-09-17T03:36:58.021Z,9.23
2018-09-17T03:39:26.684Z,9.30
2018-09-17T03:41:55.187Z,8.20
2018-09-17T03:44:23.752Z,7.90
2018-09-17T03:46:52.385Z,9.00
2018-09-17T03:49:20.716Z,8.80
2018-09-17T03:51:49.187Z,9.37
2018-09-17T03:54:18.259Z,9.67
2018-09-17T03:56:46.707Z,8.50
2018-09-17T03:59:15.311Z,8.87
2018-09-17T04:01:43.843Z,8.67
2018-09-17T04:04:12.381Z,8.37
2018-09-17T04:06:40.969Z,8.37
2018-09-17T04:09:09.595Z,7.80
2018-09-17T04:11:38.031Z,7.53
2018-09-17T04:14:07.635Z,7.93
2018-09-17T04:16:36.377Z,7.73
2018-09-17T04:19:04.715Z,9.63
2018-09-17T04:21:33.115Z,9.73
2018-09-17T04:24:01.674Z,9.43
2018-09-17T04:26:30.244Z,8.20
2018-09-17T04:28:58.804Z,10.10
2018-09-17T04:31:27.263Z,8.60
2018-09-17T04:33:55.718Z,7.93
2018-09-17T04:36:24.078Z,10.27
2018-09-17T04:38:52.447Z,10.47
2018-09-17T04:41:21.010Z,9.03
2018-09-17T04:43:49.476Z,11.57
2018-09-17T04:46:17.938Z,11.13
2018-09-17T04:48:46.475Z,12.33
2018-09-17T04:51:14.971Z,9.63
2018-09-17T04:53:43.472Z,10.03
2018-09-17T04:56:11.902Z,9.47
2018-09-17T04:58:40.451Z,11.47
2018-09-17T05:01:09.023Z,9.93
2018-09-17T05:03:37.490Z,10.00
2018-09-17T05:06:06.094Z,10.17
2018-09-17T05:08:34.557Z,9.93
2018-09-17T05:11:02.982Z,8.37
2018-09-17T05:13:31.626Z,7.90
2018-09-17T05:15:59.885Z,8.23
2018-09-17T05:18:28.397Z,8.47
2018-09-17T05:20:56.908Z,9.40
2018-09-17T05:23:25.363Z,9.03
2018-09-17T05:25:53.815Z,8.27
2018-09-17T05:28:22.282Z,7.70
2018-09-17T05:30:50.713Z,8.03
2018-09-17T05:33:19.141Z,9.33
2018-09-17T05:35:47.538Z,9.53
2018-09-17T05:38:16.009Z,8.30
2018-09-17T05:40:44.510Z,7.80
2018-09-17T05:43:13.094Z,7.87
2018-09-17T05:45:41.703Z,9.57
2018-09-17T05:48:10.234Z,8.33
2018-09-17T05:50:38.783Z,11.53
2018-09-17T05:53:07.182Z,8.73
2018-09-17T05:55:35.674Z,8.07
2018-09-17T05:58:04.158Z,8.97
2018-09-17T06:00:32.598Z,8.30
2018-09-17T06:03:01.133Z,7.77
2018-09-17T06:05:29.611Z,8.20
2018-09-17T06:07:58.310Z,7.47
2018-09-17T06:10:26.875Z,8.90
2018-09-17T06:12:55.269Z,8.30
2018-09-17T06:15:23.735Z,9.57
2018-09-17T06:17:52.250Z,7.33
2018-09-17T06:20:20.775Z,9.27
2018-09-17T06:22:49.305Z,9.23
2018-09-17T06:25:17.763Z,8.07
2018-09-17T06:27:46.271Z,8.07
2018-09-17T06:30:14.746Z,9.20
2018-09-17T06:32:43.223Z,8.43
2018-09-17T06:35:11.746Z,10.33
2018-09-17T06:37:40.243Z,7.87
2018-09-17T06:40:08.693Z,8.57
2018-09-17T06:42:37.251Z,10.20
2018-09-17T06:45:05.746Z,8.70
2018-09-17T06:47:34.219Z,8.80
2018-09-17T06:50:02.583Z,8.73
2018-09-17T06:52:31.059Z,8.73
2018-09-17T06:54:59.597Z,8.67
2018-09-17T06:57:28.186Z,8.20
2018-09-17T06:59:56.842Z,8.67
2018-09-17T07:02:25.292Z,9.47
2018-09-17T07:04:53.708Z,9.07
2018-09-17T07:07:22.062Z,7.60
2018-09-17T07:12:35.498Z,7.10
2018-09-17T07:15:03.739Z,7.80
2018-09-17T07:17:31.969Z,6.97
2018-09-17T07:20:00.276Z,7.07
2018-09-17T07:22:28.501Z,7.93
2018-09-17T07:24:56.758Z,6.53
2018-09-17T07:27:25.033Z,8.47
2018-09-17T07:29:53.289Z,8.73
2018-09-17T07:32:21.725Z,8.03
2018-09-17T07:34:49.949Z,8.03
2018-09-17T07:37:18.226Z,6.57
2018-09-17T07:39:46.509Z,7.47
2018-09-17T07:42:14.747Z,6.37
2018-09-17T07:44:43.070Z,6.17
2018-09-17T07:47:11.367Z,6.57
2018-09-17T07:49:39.642Z,6.07
2018-09-17T07:52:07.945Z,6.10
2018-09-17T07:54:36.263Z,6.23
2018-09-17T07:57:04.559Z,7.43
2018-09-17T07:59:32.773Z,9.33
2018-09-17T08:02:01.050Z,5.67
2018-09-17T08:04:29.409Z,4.67
2018-09-17T08:06:57.682Z,5.20
2018-09-17T08:09:25.991Z,4.90
2018-09-17T08:11:54.215Z,5.47
2018-09-17T08:14:22.433Z,6.67
2018-09-17T08:16:50.811Z,5.83
2018-09-17T08:19:19.190Z,5.47
2018-09-17T08:21:47.660Z,6.27
2018-09-17T08:24:16.183Z,5.23
2018-09-17T08:26:44.691Z,7.13
2018-09-17T08:29:13.070Z,5.00
2018-09-17T08:31:41.629Z,5.80
2018-09-17T08:34:10.160Z,5.53
2018-09-17T08:36:38.646Z,6.50
2018-09-17T08:39:11.679Z,5.60
2018-09-17T08:41:40.659Z,7.20
2018-09-17T08:44:09.509Z,7.97
2018-09-17T08:46:38.076Z,6.77
2018-09-17T08:49:06.535Z,8.77
2018-09-17T08:51:35.018Z,5.70
2018-09-17T08:54:03.561Z,7.00
2018-09-17T08:56:37.241Z,5.83
2018-09-17T08:59:10.005Z,8.77
2018-09-17T09:01:43.814Z,7.77
2018-09-17T09:04:17.841Z,6.13
2018-09-17T09:06:51.800Z,7.33
2018-09-17T09:09:20.262Z,8.83
2018-09-17T09:11:54.117Z,6.20
2018-09-17T09:14:27.900Z,7.60
2018-09-17T09:16:56.278Z,4.43
2018-09-17T09:19:24.872Z,4.87
2018-09-17T09:21:53.452Z,6.10
2018-09-17T09:24:22.031Z,5.73
2018-09-17T09:26:50.522Z,6.87
2018-09-17T09:29:18.897Z,4.00
2018-09-17T09:31:47.275Z,6.97
2018-09-17T09:34:15.614Z,3.87
2018-09-17T09:36:43.941Z,4.43
2018-09-17T09:39:12.655Z,5.03
2018-09-17T09:41:41.113Z,3.97
2018-09-17T09:44:09.803Z,4.80
2018-09-17T09:46:38.347Z,4.27
2018-09-17T09:49:06.810Z,4.37
2018-09-17T09:51:35.329Z,5.50
2018-09-17T09:54:03.826Z,4.43
2018-09-17T09:56:32.302Z,5.43
2018-09-17T09:59:00.730Z,3.77
2018-09-17T10:01:32.537Z,4.77
2018-09-17T10:04:06.387Z,3.50
2018-09-17T10:06:34.866Z,3.83
2018-09-17T10:09:09.136Z,6.17
2018-09-17T10:11:43.126Z,4.97
2018-09-17T10:14:16.748Z,3.93
2018-09-17T10:16:50.397Z,5.10
2018-09-17T10:19:20.625Z,6.23
2018-09-17T10:21:48.967Z,3.53
2018-09-17T10:24:17.445Z,3.50
2018-09-17T10:26:45.914Z,4.13
2018-09-17T10:29:14.470Z,3.30
2018-09-17T10:31:43.210Z,4.03
2018-09-17T10:34:11.670Z,3.57
2018-09-17T10:36:40.072Z,3.53
2018-09-17T10:39:11.038Z,3.60
2018-09-17T10:41:39.546Z,3.63
2018-09-17T10:44:08.090Z,4.50
2018-09-17T10:46:37.469Z,5.53
2018-09-17T10:49:06.277Z,2.70
2018-09-17T10:51:34.745Z,2.70
2018-09-17T10:54:03.153Z,2.77
2018-09-17T10:56:31.593Z,5.20
2018-09-17T10:59:00.124Z,4.03
2018-09-17T11:01:28.566Z,5.53
2018-09-17T11:03:57.031Z,8.73
2018-09-17T11:06:25.426Z,6.40
2018-09-17T11:08:54.044Z,7.37
2018-09-17T11:11:22.473Z,4.87
2018-09-17T11:13:50.985Z,4.10
2018-09-17T11:16:19.550Z,3.27
2018-09-17T11:18:48.330Z,7.17
2018-09-17T11:21:16.825Z,2.70
2018-09-17T11:23:45.455Z,3.47
2018-09-17T11:26:13.940Z,2.53
2018-09-17T11:28:42.407Z,7.50
2018-09-17T11:31:11.052Z,4.27
2018-09-17T11:33:39.685Z,2.77
2018-09-17T11:36:08.331Z,3.00
2018-09-17T11:38:36.802Z,4.83
2018-09-17T11:41:05.379Z,2.70
2018-09-17T11:43:33.776Z,2.90
2018-09-17T11:46:02.246Z,4.77
2018-09-17T11:48:30.932Z,7.67
2018-09-17T11:50:59.527Z,4.57
2018-09-17T11:53:28.104Z,6.23
2018-09-17T11:55:56.692Z,4.57
2018-09-17T11:58:25.314Z,2.60
2018-09-17T12:00:58.945Z,3.97
2018-09-17T12:03:32.782Z,6.30
2018-09-17T12:06:02.813Z,2.70
2018-09-17T12:08:31.395Z,2.70
2018-09-17T12:11:00.114Z,2.70
2018-09-17T12:13:28.698Z,2.80
2018-09-17T12:15:57.337Z,3.77
2018-09-17T12:18:25.783Z,3.77
2018-09-17T12:20:54.347Z,2.57
2018-09-17T12:23:23.870Z,2.67
2018-09-17T12:25:52.286Z,2.90
2018-09-17T12:28:20.774Z,4.77
2018-09-17T12:30:49.319Z,3.33
2018-09-17T12:33:17.784Z,2.80
2018-09-17T12:35:46.219Z,4.53
2018-09-17T12:38:14.683Z,2.33
2018-09-17T12:40:43.174Z,3.10
2018-09-17T12:43:11.714Z,3.10
2018-09-17T12:45:40.106Z,2.97
2018-09-17T12:48:08.612Z,2.80
2018-09-17T12:50:36.994Z,3.23
2018-09-17T12:53:05.477Z,2.80
2018-09-17T12:55:33.917Z,2.97
2018-09-17T12:58:02.494Z,2.40
2018-09-17T13:00:30.827Z,2.37
2018-09-17T13:02:59.268Z,2.50
2018-09-17T13:05:27.653Z,2.63
2018-09-17T13:07:56.138Z,2.90
2018-09-17T13:10:24.755Z,3.00
2018-09-17T13:12:53.336Z,6.43
2018-09-17T13:15:21.723Z,2.70
2018-09-17T13:17:50.244Z,3.20
2018-09-17T13:20:18.770Z,5.37
2018-09-17T13:22:47.250Z,3.47
2018-09-17T13:25:15.734Z,2.00
2018-09-17T13:27:44.313Z,3.03
2018-09-17T13:30:12.749Z,2.73
2018-09-17T13:32:41.275Z,3.37
2018-09-17T13:35:09.740Z,4.50
2018-09-17T13:37:38.388Z,2.90
2018-09-17T13:40:07.023Z,2.70
2018-09-17T13:42:35.656Z,2.70
2018-09-17T13:45:04.262Z,3.40
2018-09-17T13:47:32.732Z,4.73
2018-09-17T13:50:01.436Z,2.57
2018-09-17T13:52:29.994Z,2.70
2018-09-17T13:54:58.440Z,2.63
2018-09-17T13:57:28.780Z,4.23
2018-09-17T13:59:57.280Z,6.03
2018-09-17T14:02:25.794Z,2.67
2018-09-17T14:04:54.242Z,3.60
2018-09-17T14:07:22.826Z,2.47
2018-09-17T14:09:51.328Z,2.37
2018-09-17T14:12:19.722Z,2.30
2018-09-17T14:14:48.293Z,2.93
2018-09-17T14:17:16.692Z,2.63
2018-09-17T14:19:45.182Z,2.90
2018-09-17T14:22:13.493Z,3.00
2018-09-17T14:24:41.894Z,2.40
2018-09-17T14:27:10.456Z,3.43
2018-09-17T14:29:38.919Z,2.77
2018-09-17T14:32:12.779Z,2.30
2018-09-17T14:34:41.304Z,2.50
2018-09-17T14:37:09.865Z,2.50
2018-09-17T14:39:38.455Z,2.63
2018-09-17T14:42:06.958Z,2.77
2018-09-17T14:44:35.421Z,3.50
2018-09-17T14:47:03.910Z,6.30
2018-09-17T14:49:32.850Z,2.50
2018-09-17T14:52:01.729Z,2.40
2018-09-17T14:54:30.396Z,3.40
2018-09-17T14:56:58.900Z,2.80
2018-09-17T14:59:27.383Z,3.00
2018-09-17T15:01:56.002Z,3.37
2018-09-17T15:04:24.562Z,3.13
2018-09-17T15:06:53.046Z,2.40
2018-09-17T15:09:21.580Z,2.57
2018-09-17T15:11:50.099Z,4.03
2018-09-17T15:14:18.582Z,2.80
2018-09-17T15:16:47.017Z,4.50
2018-09-17T15:19:15.499Z,2.73
2018-09-17T15:21:44.033Z,2.70
2018-09-17T15:24:12.538Z,2.33
2018-09-17T15:26:40.852Z,3.03
2018-09-17T15:29:09.303Z,3.10
2018-09-17T15:31:37.799Z,2.80
2018-09-17T15:34:06.359Z,2.87
2018-09-17T15:36:34.715Z,3.57
2018-09-17T15:39:03.216Z,2.97
2018-09-17T15:41:31.661Z,2.20
2018-09-17T15:44:00.092Z,2.70
2018-09-17T15:46:28.383Z,2.80
2018-09-17T15:48:56.789Z,4.30
2018-09-17T15:51:25.323Z,2.13
2018-09-17T15:53:53.726Z,4.33
2018-09-17T15:56:22.289Z,3.63
2018-09-17T15:58:50.806Z,2.20
2018-09-17T16:01:19.271Z,2.57
2018-09-17T16:03:47.723Z,2.47
2018-09-17T16:06:16.245Z,2.30
2018-09-17T16:08:44.855Z,3.17
2018-09-17T16:11:13.281Z,4.33
2018-09-17T16:13:41.675Z,3.10
2018-09-17T16:16:10.079Z,2.60
2018-09-17T16:18:38.590Z,2.70
2018-09-17T16:21:07.084Z,3.33
2018-09-17T16:23:35.444Z,3.53
2018-09-17T16:26:03.944Z,2.37
2018-09-17T16:28:32.517Z,2.83
2018-09-17T16:31:00.995Z,2.53
2018-09-17T16:33:29.565Z,4.57
2018-09-17T16:35:58.134Z,3.37
2018-09-17T16:38:26.671Z,3.43
2018-09-17T16:40:55.146Z,2.30
2018-09-17T16:43:23.664Z,2.90
2018-09-17T16:45:52.249Z,4.63
2018-09-17T16:48:21.658Z,3.40
2018-09-17T16:50:50.138Z,3.93
2018-09-17T16:53:18.638Z,3.80
2018-09-17T16:55:47.122Z,2.70
2018-09-17T16:58:15.599Z,3.90
2018-09-17T17:00:45.010Z,2.63
2018-09-17T17:03:13.620Z,5.07
2018-09-17T17:05:42.197Z,3.43
2018-09-17T17:08:10.916Z,3.50
2018-09-17T17:10:39.522Z,3.53
2018-09-17T17:13:08.224Z,7.93
2018-09-17T17:15:36.742Z,2.67
2018-09-17T17:18:05.604Z,8.60
2018-09-17T17:20:34.152Z,18.10
2018-09-17T17:23:03.878Z,10.47
2018-09-17T17:25:32.562Z,5.50
2018-09-17T17:28:01.223Z,9.47
2018-09-17T17:30:29.785Z,8.37
2018-09-17T17:32:58.214Z,5.13
2018-09-17T17:35:26.750Z,7.47
2018-09-17T17:37:55.182Z,5.13
2018-09-17T17:40:23.973Z,6.17
2018-09-17T17:42:52.447Z,8.60
2018-09-17T17:45:20.847Z,10.17
2018-09-17T17:47:49.379Z,9.80
2018-09-17T17:50:17.866Z,6.13
2018-09-17T17:52:46.305Z,7.43
2018-09-17T17:55:14.825Z,8.57
2018-09-17T17:57:43.432Z,6.47
2018-09-17T18:00:11.958Z,8.97
2018-09-17T18:02:40.598Z,8.63
2018-09-17T18:05:09.062Z,5.83
2018-09-17T18:07:37.618Z,17.80
2018-09-17T18:10:06.327Z,10.80
2018-09-17T18:12:34.894Z,13.57
2018-09-17T18:15:03.376Z,8.20
2018-09-17T18:17:31.763Z,4.93
2018-09-17T18:20:00.188Z,8.70
2018-09-17T18:22:28.704Z,6.97
2018-09-17T18:24:57.260Z,6.10
2018-09-17T18:27:25.892Z,4.60
2018-09-17T18:29:54.316Z,4.23
2018-09-17T18:32:22.774Z,5.87
2018-09-17T18:34:51.287Z,3.60
2018-09-17T18:37:19.747Z,4.70
2018-09-17T18:39:48.387Z,5.07
2018-09-17T18:42:16.726Z,5.97
2018-09-17T18:44:45.203Z,5.03
2018-09-17T18:47:13.853Z,4.17
2018-09-17T18:49:42.311Z,3.20
2018-09-17T18:52:10.780Z,2.60
2018-09-17T18:54:39.353Z,4.50
2018-09-17T18:57:07.880Z,4.57
2018-09-17T18:59:37.182Z,6.73
2018-09-17T19:02:05.759Z,4.83
2018-09-17T19:04:34.144Z,4.53
2018-09-17T19:07:02.454Z,5.90
2018-09-17T19:09:36.331Z,4.03
2018-09-17T19:12:05.080Z,4.30
2018-09-17T19:14:38.671Z,5.40
2018-09-17T19:17:12.449Z,5.33
2018-09-17T19:19:40.893Z,4.20
2018-09-17T19:22:14.887Z,4.47
2018-09-17T19:24:43.202Z,5.63
2018-09-17T19:27:11.675Z,3.70
2018-09-17T19:29:40.116Z,4.60
2018-09-17T19:32:08.665Z,3.20
2018-09-17T19:34:37.169Z,3.67
2018-09-17T19:37:10.993Z,4.20
2018-09-17T19:39:44.912Z,5.13
2018-09-17T19:42:13.461Z,4.13
2018-09-17T19:44:46.174Z,3.30
2018-09-17T19:47:14.668Z,3.70
2018-09-17T19:49:43.102Z,4.90
2018-09-17T19:52:16.961Z,4.13
2018-09-17T19:54:45.464Z,3.33
2018-09-17T19:57:19.186Z,4.17
2018-09-17T19:59:51.530Z,5.00
2018-09-17T20:02:20.457Z,3.47
2018-09-17T20:04:55.489Z,5.13
2018-09-17T20:07:24.681Z,3.30
2018-09-17T20:09:53.371Z,3.80
2018-09-17T20:12:22.159Z,3.80
2018-09-17T20:14:50.747Z,4.13
2018-09-17T20:17:25.428Z,5.47
2018-09-17T20:19:53.961Z,4.77
2018-09-17T20:22:22.477Z,4.37
2018-09-17T20:24:50.903Z,4.60
2018-09-17T20:27:19.446Z,4.30
2018-09-17T20:29:47.978Z,4.10
2018-09-17T20:32:16.679Z,4.20
2018-09-17T20:34:45.520Z,4.27
2018-09-17T20:37:14.063Z,3.33
2018-09-17T20:39:42.522Z,4.57
2018-09-17T20:42:11.041Z,6.13
2018-09-17T20:44:39.498Z,5.37
2018-09-17T20:47:07.824Z,3.80
2018-09-17T20:49:36.345Z,3.73
2018-09-17T20:52:04.835Z,3.43
2018-09-17T20:54:33.269Z,3.70
2018-09-17T20:57:01.683Z,4.40
2018-09-17T20:59:30.232Z,4.70
2018-09-17T21:01:58.754Z,4.30
2018-09-17T21:04:27.194Z,4.10
2018-09-17T21:06:55.702Z,4.33
2018-09-17T21:09:24.219Z,4.10
2018-09-17T21:11:52.573Z,5.40
2018-09-17T21:14:21.074Z,4.00
2018-09-17T21:16:49.585Z,4.50
2018-09-17T21:19:19.986Z,4.37
2018-09-17T21:21:48.660Z,5.07
2018-09-17T21:24:17.101Z,4.40
2018-09-17T21:26:45.622Z,3.83
2018-09-17T21:29:14.162Z,3.97
2018-09-17T21:31:42.673Z,4.80
2018-09-17T21:34:11.230Z,5.03
2018-09-17T21:36:39.741Z,4.13
2018-09-17T21:39:10.787Z,3.90
2018-09-17T21:41:39.930Z,4.70
2018-09-17T21:44:08.457Z,4.37
2018-09-17T21:46:36.935Z,4.60
2018-09-17T21:49:05.515Z,4.00
2018-09-17T21:51:33.959Z,5.10
2018-09-17T21:54:02.386Z,5.03
2018-09-17T21:56:30.815Z,3.93
2018-09-17T21:58:59.306Z,3.73
2018-09-17T22:01:27.786Z,3.87
2018-09-17T22:03:56.213Z,3.93
2018-09-17T22:06:24.687Z,3.90
2018-09-17T22:08:53.047Z,4.07
2018-09-17T22:11:21.575Z,4.70
2018-09-17T22:13:50.149Z,5.37
2018-09-17T22:16:18.827Z,4.33
2018-09-17T22:18:47.680Z,5.97
2018-09-17T22:21:16.194Z,4.57
2018-09-17T22:23:44.674Z,4.93
2018-09-17T22:26:13.044Z,4.50
2018-09-17T22:28:41.456Z,5.67
2018-09-17T22:31:10.115Z,5.10
2018-09-17T22:33:38.705Z,4.83
2018-09-17T22:36:07.397Z,5.03
2018-09-17T22:38:35.822Z,4.57
2018-09-17T22:41:04.240Z,5.40
2018-09-17T22:43:32.734Z,5.80
2018-09-17T22:46:01.206Z,4.20
2018-09-17T22:48:29.583Z,4.80
2018-09-17T22:50:57.917Z,5.90
2018-09-17T22:53:26.338Z,6.33
2018-09-17T22:55:54.733Z,5.43
2018-09-17T22:58:23.096Z,6.33
2018-09-17T23:00:51.553Z,8.10
2018-09-17T23:03:20.035Z,4.20
2018-09-17T23:05:48.647Z,6.40
2018-09-17T23:08:17.148Z,4.80
2018-09-17T23:10:45.615Z,7.93
2018-09-17T23:13:14.256Z,5.20
2018-09-17T23:15:42.924Z,4.03
2018-09-17T23:18:11.608Z,4.57
2018-09-17T23:20:40.092Z,5.73
2018-09-17T23:23:08.591Z,4.03
2018-09-17T23:25:37.079Z,5.67
2018-09-17T23:28:05.766Z,6.40
2018-09-17T23:30:34.316Z,4.77
2018-09-17T23:33:02.779Z,11.33
2018-09-17T23:35:31.239Z,4.47
2018-09-17T23:37:59.794Z,3.93
2018-09-17T23:40:28.941Z,4.57
2018-09-17T23:42:57.397Z,4.70
2018-09-17T23:45:25.864Z,5.93
2018-09-17T23:47:54.294Z,4.97
2018-09-17T23:50:22.768Z,4.50
2018-09-17T23:52:54.098Z,4.47
2018-09-17T23:55:22.590Z,5.33
2018-09-17T23:57:51.131Z,5.07
